Time;durP1;ratioP1;P1;durP2;ratioP2;P2;SDS_P1;SDS_P2;PMS_P1;PMS_P2;Temp;Humidity;BMP_temperature;BMP_pressure;BME280_temperature;BME280_humidity;BME280_pressure;Samples;Min_cycle;Max_cycle;Signal;HPM_P1;HPM_P2
2024/02/07 00:02:14;;;;;;;0.30;0.20;;;10.00;99.90;;;;;;5124855;27;20270;-76
2024/02/07 00:04:39;;;;;;;0.30;0.20;;;10.00;99.90;;;;;;5108942;28;20428;-76
2024/02/07 00:07:05;;;;;;;0.30;0.20;;;9.90;99.90;;;;;;5124224;27;20467;-78
2024/02/07 00:09:31;;;;;;;0.30;0.20;;;9.90;99.90;;;;;;5124578;27;20210;-78
2024/02/07 00:11:56;;;;;;;0.30;0.20;;;9.90;99.90;;;;;;5124480;27;20229;-78
2024/02/07 00:14:22;;;;;;;11.53;3.30;;;9.80;99.90;;;;;;5124785;27;20545;-77
2024/02/07 00:16:48;;;;;;;0.30;0.20;;;9.70;99.90;;;;;;5124172;27;20628;-76
2024/02/07 00:19:13;;;;;;;0.30;0.20;;;9.70;99.90;;;;;;5124701;27;20200;-78
2024/02/07 00:21:40;;;;;;;0.30;0.20;;;9.60;99.90;;;;;;5108287;28;20172;-77
2024/02/07 00:24:06;;;;;;;0.30;0.20;;;9.60;99.90;;;;;;5108341;28;20192;-76
2024/02/07 00:26:34;;;;;;;0.30;0.20;;;9.60;99.90;;;;;;5123613;27;20215;-78
2024/02/07 00:29:00;;;;;;;0.30;0.20;;;9.60;99.90;;;;;;5123994;27;20571;-78
2024/02/07 00:31:26;;;;;;;0.30;0.20;;;9.60;99.90;;;;;;5108583;28;20172;-77
2024/02/07 00:33:51;;;;;;;0.30;0.20;;;9.70;99.90;;;;;;5108387;28;20335;-78
2024/02/07 00:36:17;;;;;;;0.30;0.20;;;9.70;99.90;;;;;;5123777;27;20518;-77
2024/02/07 00:38:43;;;;;;;65.73;49.20;;;9.70;99.90;;;;;;5108399;28;20192;-77
2024/02/07 00:41:21;;;;;;;0.40;0.40;;;9.70;99.90;;;;;;5107999;28;20313;-77
2024/02/07 00:43:48;;;;;;;0.30;0.20;;;9.70;99.90;;;;;;5123952;27;20195;-76
2024/02/07 00:46:14;;;;;;;0.30;0.20;;;9.60;99.90;;;;;;5123859;27;20246;-78
2024/02/07 00:48:40;;;;;;;0.40;0.20;;;9.70;99.90;;;;;;5123720;27;20704;-78
2024/02/07 00:51:07;;;;;;;0.30;0.20;;;9.70;99.90;;;;;;5123107;27;20186;-76
2024/02/07 00:53:33;;;;;;;0.30;0.20;;;9.70;99.90;;;;;;5123834;27;20231;-77
2024/02/07 00:55:58;;;;;;;0.30;0.20;;;9.60;99.90;;;;;;5107767;28;20200;-78
2024/02/07 00:58:24;;;;;;;0.30;0.30;;;9.60;99.90;;;;;;5107921;28;20244;-78
2024/02/07 01:00:50;;;;;;;0.30;0.20;;;9.60;99.90;;;;;;5123311;27;20647;-78
2024/02/07 01:03:16;;;;;;;0.40;0.40;;;9.60;99.90;;;;;;5107923;28;20458;-78
2024/02/07 01:05:41;;;;;;;0.30;0.20;;;9.60;99.90;;;;;;5107837;28;20760;-77
2024/02/07 01:08:07;;;;;;;0.30;0.20;;;9.50;99.90;;;;;;5107829;28;20218;-76
2024/02/07 01:10:33;;;;;;;0.30;0.20;;;9.50;99.90;;;;;;5123254;27;20231;-75
2024/02/07 01:12:59;;;;;;;0.30;0.20;;;9.50;99.90;;;;;;5107318;28;20435;-78
2024/02/07 01:15:24;;;;;;;0.40;0.40;;;9.50;99.90;;;;;;5107659;28;20179;-76
2024/02/07 01:17:50;;;;;;;0.30;0.20;;;9.50;99.90;;;;;;5107432;28;20208;-76
2024/02/07 01:20:15;;;;;;;1.53;1.53;;;9.50;99.90;;;;;;5123209;27;20217;-76
2024/02/07 01:22:42;;;;;;;0.30;0.20;;;9.50;99.90;;;;;;5107193;28;20199;-76
2024/02/07 01:25:08;;;;;;;0.30;0.20;;;9.40;99.90;;;;;;5107299;28;20185;-76
2024/02/07 01:27:34;;;;;;;5.82;2.50;;;9.40;99.90;;;;;;5122731;27;20229;-78
2024/02/07 01:30:01;;;;;;;0.30;0.20;;;9.30;99.90;;;;;;5122933;27;20188;-78
2024/02/07 01:32:27;;;;;;;0.30;0.20;;;9.30;99.90;;;;;;5107299;28;20784;-78
2024/02/07 01:34:53;;;;;;;0.30;0.20;;;9.20;99.90;;;;;;5106771;28;20180;-77
2024/02/07 01:37:18;;;;;;;1.70;1.60;;;9.20;99.90;;;;;;5106144;28;20190;-78
2024/02/07 01:39:44;;;;;;;0.30;0.20;;;9.20;99.90;;;;;;5107237;28;20168;-76
2024/02/07 01:42:10;;;;;;;0.30;0.30;;;9.20;99.90;;;;;;5107326;28;20281;-76
2024/02/07 01:44:37;;;;;;;0.30;0.20;;;9.10;99.90;;;;;;5122810;27;20212;-76
2024/02/07 01:47:11;;;;;;;0.30;0.30;;;9.10;99.90;;;;;;5106869;28;20470;-76
2024/02/07 01:49:45;;;;;;;0.30;0.20;;;9.00;99.90;;;;;;5106426;28;20203;-77
2024/02/07 01:52:14;;;;;;;0.30;0.20;;;9.00;99.90;;;;;;5122090;27;20186;-76
2024/02/07 01:54:40;;;;;;;0.30;0.20;;;9.00;99.90;;;;;;5106836;28;20240;-76
2024/02/07 01:57:07;;;;;;;0.30;0.20;;;9.00;99.90;;;;;;5106573;28;20172;-77
2024/02/07 01:59:34;;;;;;;0.30;0.20;;;9.00;99.90;;;;;;5122469;27;20219;-76
2024/02/07 02:01:59;;;;;;;0.30;0.20;;;9.10;99.90;;;;;;5106741;28;20194;-76
2024/02/07 02:04:25;;;;;;;0.30;0.20;;;9.20;99.90;;;;;;5106751;28;20206;-76
2024/02/07 02:06:52;;;;;;;0.30;0.20;;;9.20;99.90;;;;;;5106486;28;20211;-80
2024/02/07 02:09:19;;;;;;;0.30;0.20;;;9.20;99.90;;;;;;5122477;27;20260;-78
2024/02/07 02:11:49;;;;;;;0.30;0.20;;;9.30;99.90;;;;;;5106179;28;20724;-76
2024/02/07 02:14:17;;;;;;;0.30;0.20;;;9.30;99.90;;;;;;5106578;28;20281;-78
2024/02/07 02:16:42;;;;;;;0.30;0.20;;;9.30;99.90;;;;;;5106054;27;20187;-78
2024/02/07 02:19:08;;;;;;;1.70;1.70;;;9.30;99.90;;;;;;5106368;28;20192;-78
2024/02/07 02:22:06;;;;;;;0.30;0.20;;;9.40;99.90;;;;;;5106240;28;20175;-76
2024/02/07 02:24:57;;;;;;;1.05;1.00;;;9.40;99.90;;;;;;5106368;28;20660;-76
2024/02/07 02:27:45;;;;;;;0.30;0.28;;;9.50;99.90;;;;;;5105871;28;20660;-76
2024/02/07 02:30:19;;;;;;;0.30;0.20;;;9.50;99.90;;;;;;5106479;28;20629;-76
2024/02/07 02:32:48;;;;;;;0.30;0.20;;;9.50;99.90;;;;;;5105672;28;20200;-78
2024/02/07 02:35:16;;;;;;;0.30;0.20;;;9.50;99.90;;;;;;5106123;28;20675;-76
2024/02/07 02:37:43;;;;;;;0.30;0.20;;;9.40;99.90;;;;;;5105621;28;20209;-77
2024/02/07 02:40:09;;;;;;;0.30;0.30;;;9.40;99.90;;;;;;5106208;28;20172;-78
2024/02/07 02:42:35;;;;;;;0.30;0.20;;;9.40;99.90;;;;;;5121720;27;20203;-76
2024/02/07 02:45:01;;;;;;;0.93;0.93;;;9.40;99.90;;;;;;5106005;28;20648;-78
2024/02/07 02:47:28;;;;;;;0.30;0.20;;;9.30;99.90;;;;;;5121394;27;20472;-76
2024/02/07 02:49:54;;;;;;;0.35;0.35;;;9.30;99.90;;;;;;5105947;28;20636;-78
2024/02/07 02:52:22;;;;;;;0.30;0.20;;;9.30;99.90;;;;;;5120791;27;20180;-76
2024/02/07 02:54:49;;;;;;;0.30;0.20;;;9.30;99.90;;;;;;5105704;28;20176;-76
2024/02/07 02:57:16;;;;;;;0.30;0.20;;;9.20;99.90;;;;;;5121446;27;20245;-76
2024/02/07 02:59:43;;;;;;;0.30;0.20;;;9.20;99.90;;;;;;5105793;28;20176;-76
2024/02/07 03:02:09;;;;;;;0.30;0.20;;;9.20;99.90;;;;;;5105613;28;20176;-76
2024/02/07 03:04:41;;;;;;;14.50;13.05;;;9.20;99.90;;;;;;5105809;28;20262;-77
2024/02/07 03:09:52;;;;;;;0.30;0.20;;;9.20;99.90;;;;;;5105411;28;20307;-78
2024/02/07 03:12:18;;;;;;;0.30;0.20;;;9.20;99.90;;;;;;5105859;28;20668;-77
2024/02/07 03:14:43;;;;;;;0.30;0.20;;;9.20;99.90;;;;;;5105714;28;20207;-77
2024/02/07 03:17:09;;;;;;;0.30;0.20;;;9.30;99.90;;;;;;5105544;28;20228;-78
2024/02/07 03:19:35;;;;;;;0.30;0.30;;;9.30;99.90;;;;;;5105717;28;20203;-76
2024/02/07 03:22:01;;;;;;;0.30;0.20;;;9.30;99.90;;;;;;5105459;28;20168;-76
2024/02/07 03:24:27;;;;;;;0.30;0.20;;;9.30;99.90;;;;;;5121561;28;20692;-76
2024/02/07 03:26:54;;;;;;;0.30;0.20;;;9.30;99.90;;;;;;5120911;28;20246;-76
2024/02/07 03:29:19;;;;;;;0.30;0.20;;;9.30;99.90;;;;;;5121595;28;20200;-78
2024/02/07 03:31:45;;;;;;;0.30;0.20;;;9.40;99.90;;;;;;5105651;28;20172;-76
2024/02/07 03:34:11;;;;;;;0.30;0.20;;;9.40;99.90;;;;;;5121228;28;20443;-76
2024/02/07 03:36:37;;;;;;;0.50;0.50;;;9.50;99.90;;;;;;5104520;28;20188;-78
2024/02/07 03:39:07;;;;;;;0.30;0.30;;;9.50;99.90;;;;;;5105431;28;20224;-78
2024/02/07 03:41:41;;;;;;;2.58;2.47;;;9.50;99.90;;;;;;5104906;28;20172;-78
2024/02/07 03:44:12;;;;;;;0.30;0.20;;;9.50;99.90;;;;;;5121058;28;20199;-76
2024/02/07 03:46:42;;;;;;;0.30;0.20;;;9.40;99.90;;;;;;5105277;28;20200;-76
2024/02/07 03:49:09;;;;;;;0.88;0.88;;;9.40;99.90;;;;;;5121452;28;20290;-77
2024/02/07 03:51:35;;;;;;;0.30;0.30;;;9.40;99.90;;;;;;5120761;28;20192;-77
2024/02/07 03:54:04;;;;;;;0.30;0.20;;;9.40;99.90;;;;;;5120056;28;20200;-77
2024/02/07 03:56:30;;;;;;;4.10;4.00;;;9.40;99.90;;;;;;5120949;28;20190;-77
2024/02/07 03:58:57;;;;;;;0.30;0.20;;;9.40;99.90;;;;;;5105407;28;20203;-78
2024/02/07 04:01:24;;;;;;;0.30;0.20;;;9.40;99.90;;;;;;5124389;27;20324;-76
2024/02/07 04:03:49;;;;;;;0.30;0.20;;;9.40;99.90;;;;;;5109342;28;20195;-76
2024/02/07 04:06:15;;;;;;;0.30;0.20;;;9.50;99.90;;;;;;5108600;28;20211;-76
2024/02/07 04:08:42;;;;;;;0.40;0.40;;;9.50;99.90;;;;;;5109012;28;20226;-77
2024/02/07 04:11:12;;;;;;;0.30;0.20;;;9.60;99.90;;;;;;5108511;28;20452;-77
2024/02/07 05:16:15;;;;;;;0.68;0.68;;;9.30;99.90;;;;;;5105876;28;20178;-77
2024/02/07 05:18:41;;;;;;;0.30;0.20;;;9.20;99.90;;;;;;5122511;27;20580;-78
2024/02/07 05:21:10;;;;;;;0.30;0.27;;;9.20;99.90;;;;;;5122955;27;20443;-79
2024/02/07 05:23:36;;;;;;;0.30;0.20;;;9.10;99.90;;;;;;5122031;27;20861;-78
2024/02/07 05:26:04;;;;;;;0.30;0.20;;;9.10;99.90;;;;;;5105611;28;20228;-77
2024/02/07 05:28:30;;;;;;;0.30;0.30;;;9.00;99.90;;;;;;5102468;28;20479;-76
2024/02/07 05:30:55;;;;;;;0.30;0.20;;;9.00;99.90;;;;;;5106188;28;20483;-77
2024/02/07 05:33:21;;;;;;;0.30;0.20;;;9.00;99.90;;;;;;5104049;28;20520;-77
2024/02/07 05:35:47;;;;;;;0.30;0.20;;;9.00;99.90;;;;;;5104609;28;20211;-76
2024/02/07 05:38:13;;;;;;;0.40;0.40;;;9.00;99.90;;;;;;5102906;28;20249;-77
2024/02/07 05:40:38;;;;;;;6.63;6.23;;;9.00;99.90;;;;;;5102968;28;20267;-76
2024/02/07 05:43:05;;;;;;;0.30;0.20;;;9.00;99.90;;;;;;5104830;28;20496;-76
2024/02/07 05:45:31;;;;;;;0.30;0.20;;;8.90;99.90;;;;;;5104903;28;20262;-76
2024/02/07 05:47:57;;;;;;;0.30;0.20;;;8.90;99.90;;;;;;5103953;28;20508;-76
2024/02/07 05:50:22;;;;;;;0.30;0.20;;;8.80;99.90;;;;;;5106005;28;20411;-77
2024/02/07 05:52:48;;;;;;;0.30;0.20;;;8.80;99.90;;;;;;5106033;28;20187;-77
2024/02/07 05:55:14;;;;;;;0.30;0.20;;;8.80;99.90;;;;;;5106216;28;20207;-77
2024/02/07 05:57:39;;;;;;;0.30;0.20;;;8.70;99.90;;;;;;5106162;28;20202;-77
2024/02/07 06:00:08;;;;;;;0.30;0.20;;;8.60;99.90;;;;;;5105247;28;20183;-78
2024/02/07 06:02:34;;;;;;;0.30;0.20;;;8.40;99.90;;;;;;5105301;28;20667;-78
2024/02/07 06:05:03;;;;;;;0.30;0.20;;;8.30;99.90;;;;;;5105895;28;20164;-78
2024/02/07 06:07:30;;;;;;;0.30;0.20;;;8.20;99.90;;;;;;5106112;28;20819;-77
2024/02/07 06:09:56;;;;;;;0.30;0.20;;;8.10;99.90;;;;;;5119163;27;20739;-78
2024/02/07 06:12:22;;;;;;;0.30;0.20;;;8.10;99.90;;;;;;5101636;28;20217;-77
2024/02/07 06:14:48;;;;;;;0.30;0.20;;;8.00;99.90;;;;;;5105126;28;20160;-77
2024/02/07 06:17:13;;;;;;;0.30;0.20;;;8.00;99.90;;;;;;5105706;27;20186;-78
2024/02/07 06:19:39;;;;;;;0.30;0.20;;;8.00;99.90;;;;;;5102567;28;20260;-77
2024/02/07 06:22:05;;;;;;;0.30;0.20;;;8.00;99.90;;;;;;5097978;28;20623;-78
2024/02/07 06:24:31;;;;;;;0.30;0.20;;;8.00;99.90;;;;;;5121285;27;20257;-78
2024/02/07 06:26:58;;;;;;;0.30;0.20;;;8.10;99.90;;;;;;5105297;28;20610;-78
2024/02/07 06:29:23;;;;;;;0.30;0.20;;;8.00;99.90;;;;;;5103835;28;20234;-78
2024/02/07 06:31:49;;;;;;;6.23;2.30;;;8.10;99.90;;;;;;5104732;28;20591;-77
2024/02/07 06:34:17;;;;;;;0.30;0.20;;;8.10;99.90;;;;;;5104043;28;20956;-78
2024/02/07 06:36:42;;;;;;;0.30;0.20;;;8.10;99.90;;;;;;5103373;28;20326;-78
2024/02/07 06:39:08;;;;;;;0.30;0.20;;;8.10;99.90;;;;;;5104940;28;20199;-77
2024/02/07 06:41:36;;;;;;;0.30;0.20;;;8.10;99.90;;;;;;5102932;28;20196;-78
2024/02/07 06:44:02;;;;;;;0.82;0.82;;;8.10;99.90;;;;;;5103752;28;20299;-79
2024/02/07 06:46:29;;;;;;;0.30;0.20;;;8.10;99.90;;;;;;5107558;27;20283;-78
2024/02/07 06:48:55;;;;;;;0.30;0.20;;;8.10;99.90;;;;;;5118629;27;20237;-78
2024/02/07 06:51:21;;;;;;;0.30;0.20;;;8.10;99.90;;;;;;5092559;28;20282;-78
2024/02/07 06:53:46;;;;;;;0.30;0.20;;;8.10;99.90;;;;;;5100472;28;20203;-77
2024/02/07 06:56:13;;;;;;;0.30;0.20;;;8.20;99.90;;;;;;5100596;28;20178;-76
2024/02/07 06:58:38;;;;;;;0.35;0.30;;;8.30;99.90;;;;;;5110690;27;20212;-77
2024/02/07 07:01:04;;;;;;;0.30;0.27;;;8.30;99.90;;;;;;5094468;28;20701;-77
2024/02/07 07:03:30;;;;;;;0.30;0.30;;;8.30;99.90;;;;;;5109107;28;20199;-76
2024/02/07 07:05:57;;;;;;;0.30;0.20;;;8.40;99.90;;;;;;5100437;28;20250;-77
2024/02/07 07:08:23;;;;;;;2.95;2.25;;;8.30;99.90;;;;;;5101129;28;20252;-76
2024/02/07 07:10:49;;;;;;;0.30;0.20;;;8.30;99.90;;;;;;5100709;28;20227;-76
2024/02/07 07:13:15;;;;;;;0.30;0.20;;;8.30;99.90;;;;;;5102042;28;20797;-77
2024/02/07 07:15:40;;;;;;;0.50;0.50;;;8.40;99.90;;;;;;5101293;28;20167;-78
2024/02/07 07:18:08;;;;;;;0.43;0.40;;;8.40;99.90;;;;;;5098465;28;20196;-77
2024/02/07 07:20:34;;;;;;;0.30;0.20;;;8.50;99.90;;;;;;5085083;28;20320;-76
2024/02/07 07:23:00;;;;;;;2.05;1.95;;;8.60;99.90;;;;;;5081218;28;20440;-78
2024/02/07 07:25:27;;;;;;;2.58;2.47;;;8.60;99.90;;;;;;5079489;28;20238;-76
2024/02/07 07:27:54;;;;;;;0.35;0.35;;;8.80;99.90;;;;;;5083242;28;20224;-78
2024/02/07 07:30:19;;;;;;;0.30;0.30;;;9.00;99.90;;;;;;5098370;28;20404;-76
2024/02/07 07:32:45;;;;;;;2.27;1.90;;;9.10;99.90;;;;;;5102106;28;20683;-78
2024/02/07 07:35:12;;;;;;;1.13;1.13;;;9.20;99.90;;;;;;5101009;28;20183;-78
2024/02/07 07:37:38;;;;;;;0.82;0.82;;;9.20;99.90;;;;;;5102338;28;20211;-76
2024/02/07 07:40:04;;;;;;;0.33;0.33;;;9.30;99.90;;;;;;5095995;28;20196;-77
2024/02/07 07:42:30;;;;;;;2.65;2.45;;;9.50;99.90;;;;;;5100972;28;20668;-78
2024/02/07 07:44:55;;;;;;;0.30;0.30;;;9.60;99.90;;;;;;5100804;28;20164;-78
2024/02/07 07:47:21;;;;;;;3.03;2.80;;;9.80;99.90;;;;;;5099971;28;20588;-76
2024/02/07 07:49:47;;;;;;;0.30;0.30;;;10.00;99.90;;;;;;5087298;28;20479;-78
2024/02/07 07:52:12;;;;;;;0.30;0.20;;;10.30;99.90;;;;;;5118412;27;20180;-77
2024/02/07 07:54:38;;;;;;;0.30;0.20;;;10.60;99.90;;;;;;5104577;28;20198;-76
2024/02/07 07:57:07;;;;;;;0.40;0.30;;;11.00;99.90;;;;;;5103621;28;20176;-78
2024/02/07 07:59:33;;;;;;;0.40;0.20;;;11.40;99.90;;;;;;5104580;28;20206;-76
2024/02/07 08:02:00;;;;;;;0.40;0.30;;;11.70;99.90;;;;;;5102732;28;20191;-78
2024/02/07 08:04:26;;;;;;;0.50;0.47;;;12.00;99.90;;;;;;5104271;28;20267;-76
2024/02/07 08:06:51;;;;;;;0.50;0.30;;;12.40;99.90;;;;;;5103158;28;20574;-76
2024/02/07 08:09:18;;;;;;;2.23;2.13;;;12.80;99.90;;;;;;5100102;28;20506;-76
2024/02/07 08:11:44;;;;;;;1.60;1.60;;;13.20;99.90;;;;;;5098540;28;20831;-77
2024/02/07 08:14:10;;;;;;;0.40;0.30;;;13.70;99.90;;;;;;5098832;28;20458;-78
2024/02/07 08:16:36;;;;;;;0.40;0.30;;;14.10;99.90;;;;;;5102037;28;20498;-76
2024/02/07 08:19:02;;;;;;;0.93;0.93;;;14.60;99.90;;;;;;5101209;28;21004;-77
2024/02/07 08:21:27;;;;;;;0.40;0.40;;;15.10;99.90;;;;;;5100643;28;20719;-78
2024/02/07 08:23:54;;;;;;;0.50;0.50;;;15.50;99.90;;;;;;5105856;27;20207;-77
2024/02/07 08:26:21;;;;;;;6.20;4.33;;;16.00;99.90;;;;;;5082853;28;20207;-77
2024/02/07 08:28:47;;;;;;;0.40;0.30;;;16.30;99.90;;;;;;5098102;28;20575;-77
2024/02/07 08:31:13;;;;;;;0.40;0.20;;;16.70;99.90;;;;;;5118597;27;20983;-77
2024/02/07 08:33:39;;;;;;;0.90;0.90;;;17.00;99.90;;;;;;5084822;28;20669;-78
2024/02/07 08:36:05;;;;;;;0.40;0.30;;;17.50;99.90;;;;;;5096587;28;20438;-77
2024/02/07 08:38:30;;;;;;;0.40;0.30;;;18.10;99.90;;;;;;5098717;28;20454;-79
2024/02/07 08:40:56;;;;;;;1.07;1.07;;;18.70;99.90;;;;;;5102266;28;20435;-78
2024/02/07 08:43:22;;;;;;;3.00;1.90;;;19.40;99.90;;;;;;5101924;28;20273;-77
2024/02/07 08:45:49;;;;;;;0.40;0.20;;;20.00;99.90;;;;;;5095612;28;20180;-78
2024/02/07 08:48:14;;;;;;;2.93;2.77;;;20.50;99.90;;;;;;5097599;28;21031;-78
2024/02/07 08:50:40;;;;;;;0.80;0.80;;;20.90;99.90;;;;;;5100388;28;20456;-78
2024/02/07 08:53:07;;;;;;;0.40;0.30;;;21.10;99.90;;;;;;5103511;28;20725;-78
2024/02/07 08:55:33;;;;;;;1.33;1.23;;;21.20;99.60;;;;;;5096937;28;20263;-78
2024/02/07 08:57:59;;;;;;;51.80;8.03;;;21.20;98.80;;;;;;5104088;28;20478;-78
2024/02/07 09:00:25;;;;;;;0.30;0.20;;;21.20;99.20;;;;;;5100631;28;20444;-78
2024/02/07 09:02:52;;;;;;;0.40;0.30;;;21.10;98.20;;;;;;5108034;27;20434;-78
2024/02/07 09:05:19;;;;;;;1.10;0.93;;;20.70;98.20;;;;;;5097859;28;20429;-78
2024/02/07 09:07:46;;;;;;;0.40;0.30;;;20.40;99.00;;;;;;5098207;28;20475;-77
2024/02/07 09:10:12;;;;;;;3.13;2.93;;;20.50;98.60;;;;;;5102219;28;20856;-77
2024/02/07 09:12:38;;;;;;;0.40;0.30;;;20.40;98.40;;;;;;5102796;28;20450;-77
2024/02/07 09:15:04;;;;;;;12.03;11.40;;;20.40;98.80;;;;;;5121097;27;20930;-77
2024/02/07 09:17:33;;;;;;;0.40;0.23;;;20.50;98.90;;;;;;5091653;28;20597;-78
2024/02/07 09:20:02;;;;;;;3.23;2.67;;;20.80;98.40;;;;;;5094527;28;20751;-77
2024/02/07 09:22:28;;;;;;;0.30;0.20;;;21.20;97.80;;;;;;5127015;27;20548;-79
2024/02/07 09:24:54;;;;;;;0.40;0.20;;;21.50;97.10;;;;;;5098417;28;20412;-78
2024/02/07 09:27:19;;;;;;;0.70;0.70;;;21.70;97.10;;;;;;5099955;28;20205;-77
2024/02/07 09:29:45;;;;;;;0.30;0.20;;;21.60;96.80;;;;;;5097738;28;20499;-78
2024/02/07 09:32:11;;;;;;;1.13;0.90;;;21.50;96.80;;;;;;5100203;28;20358;-78
2024/02/07 09:34:43;;;;;;;2.37;1.80;;;21.70;96.90;;;;;;5099636;28;20206;-78
2024/02/07 09:37:08;;;;;;;0.40;0.30;;;21.90;96.40;;;;;;5103777;28;20539;-77
2024/02/07 09:39:34;;;;;;;0.40;0.20;;;22.30;95.90;;;;;;5096147;28;20681;-78
2024/02/07 09:42:03;;;;;;;0.40;0.20;;;22.60;95.30;;;;;;5084875;28;20193;-77
2024/02/07 09:44:31;;;;;;;0.30;0.20;;;23.00;94.70;;;;;;5092730;28;20205;-79
2024/02/07 09:47:02;;;;;;;0.30;0.30;;;23.20;94.30;;;;;;5104772;28;20518;-78
2024/02/07 09:49:28;;;;;;;0.50;0.50;;;23.30;94.00;;;;;;5103167;28;20477;-78
2024/02/07 09:51:55;;;;;;;0.40;0.20;;;23.40;93.70;;;;;;5103778;27;20463;-78
2024/02/07 09:54:20;;;;;;;3.43;3.13;;;23.50;93.10;;;;;;5099285;28;20213;-79
2024/02/07 09:56:47;;;;;;;0.30;0.20;;;23.60;92.80;;;;;;5104574;27;20440;-78
2024/02/07 09:59:13;;;;;;;0.73;0.70;;;23.60;92.60;;;;;;5086015;28;21034;-78
2024/02/07 10:01:39;;;;;;;0.90;0.47;;;23.40;92.50;;;;;;5092760;28;20437;-78
2024/02/07 10:04:26;;;;;;;0.30;0.20;;;23.00;92.90;;;;;;5099179;28;20450;-78
2024/02/07 10:06:53;;;;;;;0.30;0.20;;;22.70;92.60;;;;;;5105850;27;21021;-78
2024/02/07 10:09:19;;;;;;;0.40;0.30;;;22.40;93.00;;;;;;5098766;28;20982;-77
2024/02/07 10:11:46;;;;;;;0.67;0.67;;;21.90;93.20;;;;;;5102355;27;20482;-80
2024/02/07 10:14:12;;;;;;;0.83;0.83;;;21.50;93.90;;;;;;5107907;27;20200;-77
2024/02/07 10:16:37;;;;;;;0.30;0.20;;;21.30;94.10;;;;;;5119206;27;20490;-77
2024/02/07 10:19:03;;;;;;;0.40;0.40;;;20.80;94.30;;;;;;5098231;27;20200;-78
2024/02/07 10:21:34;;;;;;;0.40;0.20;;;20.30;94.90;;;;;;5079395;28;20429;-78
2024/02/07 10:24:00;;;;;;;0.30;0.20;;;20.00;95.60;;;;;;5080699;28;20394;-78
2024/02/07 10:26:26;;;;;;;0.33;0.20;;;19.80;96.00;;;;;;5094238;28;20653;-78
2024/02/07 10:29:05;;;;;;;0.30;0.20;;;19.70;96.60;;;;;;5095963;28;21035;-78
2024/02/07 10:31:30;;;;;;;21.63;1.20;;;19.50;96.20;;;;;;5097889;28;20466;-78
2024/02/07 10:33:59;;;;;;;0.40;0.30;;;19.40;96.50;;;;;;5103976;27;20443;-77
2024/02/07 10:36:25;;;;;;;0.40;0.30;;;19.30;96.80;;;;;;5093210;28;20229;-77
2024/02/07 10:39:00;;;;;;;0.30;0.20;;;19.10;96.70;;;;;;5096963;28;20448;-77
2024/02/07 10:41:25;;;;;;;0.30;0.20;;;18.90;96.90;;;;;;5102005;27;20585;-78
2024/02/07 10:43:51;;;;;;;0.30;0.20;;;18.80;97.10;;;;;;5095398;28;20518;-77
2024/02/07 10:46:18;;;;;;;0.40;0.30;;;18.70;97.10;;;;;;5098065;28;20699;-77
2024/02/07 10:48:44;;;;;;;1.30;1.07;;;18.50;97.80;;;;;;5096769;28;20454;-77
2024/02/07 10:51:10;;;;;;;0.30;0.20;;;18.40;97.60;;;;;;5088424;28;20421;-77
2024/02/07 10:53:36;;;;;;;0.30;0.20;;;18.40;97.70;;;;;;5099461;28;20432;-77
2024/02/07 10:56:06;;;;;;;0.30;0.20;;;18.30;97.90;;;;;;5099122;28;20478;-77
2024/02/07 10:58:33;;;;;;;0.77;0.77;;;18.30;98.30;;;;;;5114150;27;20574;-77
2024/02/07 11:00:59;;;;;;;3.33;3.13;;;18.20;98.30;;;;;;5094368;28;20548;-78
2024/02/07 11:03:29;;;;;;;0.40;0.30;;;18.10;98.40;;;;;;5085546;28;20760;-77
2024/02/07 11:05:55;;;;;;;7.90;3.33;;;18.30;98.90;;;;;;5093360;28;20969;-79
2024/02/07 11:08:22;;;;;;;0.77;0.50;;;18.40;98.80;;;;;;5093487;28;20476;-77
2024/02/07 11:10:48;;;;;;;0.50;0.40;;;18.50;98.50;;;;;;5095525;28;20479;-77
2024/02/07 11:13:14;;;;;;;0.30;0.20;;;18.60;98.30;;;;;;5103626;28;20952;-77
2024/02/07 11:15:40;;;;;;;0.30;0.20;;;18.70;98.50;;;;;;5099350;28;20525;-77
2024/02/07 11:18:10;;;;;;;0.83;0.83;;;18.80;98.40;;;;;;5100868;28;20423;-77
2024/02/07 11:20:36;;;;;;;0.30;0.30;;;18.80;98.60;;;;;;5098732;28;20440;-78
2024/02/07 11:23:08;;;;;;;0.30;0.20;;;19.00;98.40;;;;;;5097807;28;20713;-78
2024/02/07 11:25:35;;;;;;;0.40;0.30;;;19.10;97.30;;;;;;5099436;28;20429;-77
2024/02/07 11:28:01;;;;;;;0.30;0.20;;;19.10;97.40;;;;;;5099621;28;20474;-78
2024/02/07 11:30:28;;;;;;;0.30;0.20;;;19.00;97.50;;;;;;5095258;28;21083;-78
2024/02/07 11:32:55;;;;;;;0.40;0.40;;;18.90;97.60;;;;;;5097988;28;20297;-77
2024/02/07 11:35:22;;;;;;;0.40;0.40;;;18.70;97.80;;;;;;5102325;28;20682;-77
2024/02/07 11:37:51;;;;;;;0.30;0.20;;;18.70;97.90;;;;;;5116328;27;20802;-77
2024/02/07 11:40:19;;;;;;;0.30;0.20;;;18.60;97.90;;;;;;5097462;28;20959;-77
2024/02/07 11:42:45;;;;;;;4.20;2.40;;;18.50;97.90;;;;;;5093261;28;20440;-77
2024/02/07 11:45:15;;;;;;;0.40;0.40;;;18.40;98.40;;;;;;5106547;28;20415;-77
2024/02/07 11:47:44;;;;;;;17.67;1.27;;;18.30;98.30;;;;;;5105300;28;20474;-77
2024/02/07 11:50:15;;;;;;;0.30;0.20;;;18.10;98.40;;;;;;5106710;28;20715;-77
2024/02/07 11:52:42;;;;;;;0.30;0.20;;;18.00;98.80;;;;;;5098855;28;20517;-78
2024/02/07 11:55:10;;;;;;;0.40;0.20;;;18.00;98.80;;;;;;5104077;28;20407;-78
2024/02/07 11:57:43;;;;;;;0.30;0.20;;;17.90;99.20;;;;;;5104730;28;20481;-77
2024/02/07 12:00:13;;;;;;;0.30;0.30;;;17.90;99.10;;;;;;5095204;28;20490;-76
2024/02/07 12:02:44;;;;;;;1.50;1.40;;;18.00;98.90;;;;;;5102622;28;20455;-78
2024/02/07 12:05:13;;;;;;;0.90;0.73;;;17.90;99.00;;;;;;5105714;28;20447;-77
2024/02/07 12:07:40;;;;;;;3.70;1.90;;;18.00;99.10;;;;;;5118790;27;20482;-77
2024/02/07 12:10:08;;;;;;;0.30;0.20;;;18.10;99.00;;;;;;5101101;27;20959;-78
2024/02/07 12:12:34;;;;;;;0.30;0.20;;;18.00;99.10;;;;;;5092090;28;20502;-78
2024/02/07 12:15:00;;;;;;;0.30;0.20;;;18.10;99.30;;;;;;5101019;28;20425;-77
2024/02/07 12:17:26;;;;;;;0.30;0.20;;;18.20;99.30;;;;;;5096429;28;20487;-77
2024/02/07 12:19:54;;;;;;;0.50;0.50;;;18.20;99.10;;;;;;5091765;28;20267;-78
2024/02/07 12:22:20;;;;;;;0.30;0.20;;;18.20;99.00;;;;;;5126159;27;20184;-77
2024/02/07 12:24:46;;;;;;;0.30;0.20;;;18.20;99.00;;;;;;5095455;28;20439;-77
2024/02/07 12:27:13;;;;;;;0.30;0.20;;;18.10;99.20;;;;;;5099207;28;20685;-77
2024/02/07 12:29:49;;;;;;;0.80;0.80;;;18.10;99.20;;;;;;5095330;28;20213;-78
2024/02/07 12:32:15;;;;;;;0.73;0.73;;;18.10;99.20;;;;;;5101780;28;20418;-77
2024/02/07 12:34:41;;;;;;;0.60;0.60;;;18.00;99.20;;;;;;5104685;28;20406;-77
2024/02/07 12:37:08;;;;;;;0.30;0.20;;;17.90;99.40;;;;;;5127361;27;20967;-78
2024/02/07 12:39:34;;;;;;;0.30;0.20;;;17.90;99.40;;;;;;5103334;28;20202;-77
2024/02/07 12:42:04;;;;;;;0.30;0.20;;;17.90;99.40;;;;;;5102901;28;20435;-77
2024/02/07 12:44:31;;;;;;;0.73;0.73;;;17.80;99.50;;;;;;5101609;28;20536;-78
2024/02/07 12:46:57;;;;;;;0.30;0.20;;;17.80;99.60;;;;;;5100714;27;21035;-77
2024/02/07 12:49:23;;;;;;;4.33;1.80;;;17.80;99.90;;;;;;5094083;28;20443;-77
2024/02/07 12:51:49;;;;;;;0.30;0.20;;;17.90;99.50;;;;;;5095171;28;20513;-76
2024/02/07 12:54:15;;;;;;;0.30;0.20;;;17.90;99.40;;;;;;5101406;28;20438;-78
2024/02/07 12:56:40;;;;;;;0.40;0.30;;;18.00;99.60;;;;;;5098321;28;20190;-77
2024/02/07 12:59:08;;;;;;;0.30;0.20;;;18.10;99.60;;;;;;5103603;28;20203;-77
2024/02/07 13:01:33;;;;;;;0.30;0.20;;;18.10;99.70;;;;;;5102545;28;20242;-77
2024/02/07 13:03:59;;;;;;;0.30;0.20;;;18.10;99.70;;;;;;5102631;28;20538;-77
2024/02/07 13:06:25;;;;;;;0.30;0.20;;;18.20;99.90;;;;;;5096890;28;20211;-78
2024/02/07 13:08:51;;;;;;;0.40;0.30;;;18.20;99.80;;;;;;5099827;28;20710;-77
2024/02/07 13:11:17;;;;;;;0.30;0.20;;;18.30;99.80;;;;;;5102338;28;20574;-78
2024/02/07 13:13:43;;;;;;;0.40;0.30;;;18.40;99.90;;;;;;5102899;28;20207;-78
2024/02/07 13:16:09;;;;;;;0.90;0.60;;;18.40;99.70;;;;;;5102430;28;20424;-77
2024/02/07 13:18:36;;;;;;;0.30;0.20;;;18.40;99.70;;;;;;5102996;28;20564;-77
2024/02/07 13:21:05;;;;;;;1.43;1.30;;;18.50;99.70;;;;;;5096522;28;20192;-78
2024/02/07 13:23:33;;;;;;;0.30;0.20;;;18.50;99.60;;;;;;5102869;28;20439;-78
2024/02/07 13:26:00;;;;;;;1.23;0.97;;;18.50;99.50;;;;;;5101610;28;20440;-77
2024/02/07 13:28:27;;;;;;;0.40;0.40;;;18.50;99.40;;;;;;5100003;28;20475;-78
2024/02/07 13:30:52;;;;;;;0.30;0.20;;;18.60;99.70;;;;;;5100782;28;20431;-78
2024/02/07 13:33:18;;;;;;;0.30;0.20;;;18.60;99.60;;;;;;5100779;28;21035;-78
2024/02/07 13:35:47;;;;;;;0.50;0.50;;;18.50;99.70;;;;;;5102690;28;20590;-77
2024/02/07 13:38:12;;;;;;;0.30;0.20;;;18.50;99.80;;;;;;5100597;28;20334;-78
2024/02/07 13:40:41;;;;;;;0.30;0.20;;;18.60;99.80;;;;;;5099170;28;20882;-77
2024/02/07 13:43:06;;;;;;;0.40;0.40;;;18.60;99.40;;;;;;5099859;28;20211;-77
2024/02/07 13:45:32;;;;;;;0.40;0.30;;;18.60;99.40;;;;;;5102156;28;20698;-78
2024/02/07 13:47:58;;;;;;;0.30;0.20;;;18.60;99.40;;;;;;5102617;28;20624;-78
2024/02/07 13:50:23;;;;;;;0.30;0.20;;;18.60;99.70;;;;;;5101665;28;20393;-77
2024/02/07 13:52:49;;;;;;;0.43;0.43;;;18.60;99.60;;;;;;5093428;28;20235;-78
2024/02/07 13:55:18;;;;;;;0.30;0.20;;;18.70;99.30;;;;;;5097028;28;20240;-78
2024/02/07 13:57:44;;;;;;;0.30;0.30;;;18.70;99.10;;;;;;5091811;28;20213;-80